sensor_id;sensor_type;location;lat;lon;timestamp;pressure;altitude;pressure_sealevel;temperature;humidity
26531;BME280;14201;43.188;24.160;2022-12-24T00:00:12;99481.00;;;5.58;86.25
26531;BME280;14201;43.188;24.160;2022-12-24T00:02:38;99475.75;;;5.41;87.94
26531;BME280;14201;43.188;24.160;2022-12-24T00:05:03;99481.47;;;5.65;86.44
26531;BME280;14201;43.188;24.160;2022-12-24T00:07:30;99479.69;;;5.79;84.92
26531;BME280;14201;43.188;24.160;2022-12-24T00:09:56;99478.28;;;5.84;84.27
26531;BME280;14201;43.188;24.160;2022-12-24T00:12:21;99483.72;;;5.74;84.65
26531;BME280;14201;43.188;24.160;2022-12-24T00:14:46;99483.72;;;5.74;84.23
26531;BME280;14201;43.188;24.160;2022-12-24T00:17:12;99484.69;;;5.76;84.35
26531;BME280;14201;43.188;24.160;2022-12-24T00:19:37;99486.66;;;5.80;84.33
26531;BME280;14201;43.188;24.160;2022-12-24T00:22:02;99485.66;;;5.78;84.07
26531;BME280;14201;43.188;24.160;2022-12-24T00:24:28;99482.63;;;5.85;83.21
26531;BME280;14201;43.188;24.160;2022-12-24T00:26:53;99486.13;;;5.86;83.09
26531;BME280;14201;43.188;24.160;2022-12-24T00:29:19;99471.50;;;5.86;82.21
26531;BME280;14201;43.188;24.160;2022-12-24T00:31:44;99470.59;;;5.86;81.91
26531;BME280;14201;43.188;24.160;2022-12-24T00:34:10;99467.84;;;5.83;82.16
26531;BME280;14201;43.188;24.160;2022-12-24T00:36:35;99468.81;;;5.85;81.82
26531;BME280;14201;43.188;24.160;2022-12-24T00:39:00;99460.97;;;5.83;81.21
26531;BME280;14201;43.188;24.160;2022-12-24T00:41:26;99460.00;;;5.81;81.59
26531;BME280;14201;43.188;24.160;2022-12-24T00:46:18;99459.81;;;5.78;81.31
26531;BME280;14201;43.188;24.160;2022-12-24T00:48:43;99458.66;;;5.73;81.59
26531;BME280;14201;43.188;24.160;2022-12-24T00:51:09;99460.97;;;5.83;81.75
26531;BME280;14201;43.188;24.160;2022-12-24T00:53:34;99464.63;;;5.87;81.76
26531;BME280;14201;43.188;24.160;2022-12-24T00:55:59;99460.63;;;5.77;82.26
26531;BME280;14201;43.188;24.160;2022-12-24T00:58:25;99460.88;;;5.67;82.06
26531;BME280;14201;43.188;24.160;2022-12-24T01:00:50;99456.59;;;5.67;81.96
26531;BME280;14201;43.188;24.160;2022-12-24T01:03:16;99463.19;;;5.77;82.49
26531;BME280;14201;43.188;24.160;2022-12-24T01:05:41;99456.72;;;5.84;82.53
26531;BME280;14201;43.188;24.160;2022-12-24T01:08:06;99453.50;;;5.73;83.20
26531;BME280;14201;43.188;24.160;2022-12-24T01:10:32;99451.72;;;5.72;83.80
26531;BME280;14201;43.188;24.160;2022-12-24T01:13:00;99453.84;;;5.64;84.24
26531;BME280;14201;43.188;24.160;2022-12-24T01:15:25;99461.31;;;5.60;84.33
26531;BME280;14201;43.188;24.160;2022-12-24T01:17:51;99450.81;;;5.57;83.99
26531;BME280;14201;43.188;24.160;2022-12-24T01:20:16;99462.19;;;5.60;83.08
26531;BME280;14201;43.188;24.160;2022-12-24T01:22:42;99456.16;;;5.60;83.67
26531;BME280;14201;43.188;24.160;2022-12-24T01:25:07;99449.56;;;5.65;83.11
26531;BME280;14201;43.188;24.160;2022-12-24T01:27:33;99452.69;;;5.74;82.80
26531;BME280;14201;43.188;24.160;2022-12-24T01:29:58;99451.25;;;5.79;82.17
26531;BME280;14201;43.188;24.160;2022-12-24T01:32:24;99454.91;;;5.68;83.00
26531;BME280;14201;43.188;24.160;2022-12-24T01:34:49;99452.06;;;5.63;82.95
26531;BME280;14201;43.188;24.160;2022-12-24T01:37:14;99447.63;;;5.61;83.48
26531;BME280;14201;43.188;24.160;2022-12-24T01:39:40;99442.25;;;5.58;83.34
26531;BME280;14201;43.188;24.160;2022-12-24T01:42:23;99450.28;;;5.47;83.58
26531;BME280;14201;43.188;24.160;2022-12-24T01:47:52;99447.97;;;5.37;84.72
26531;BME280;14201;43.188;24.160;2022-12-24T01:50:17;99443.50;;;5.49;83.66
26531;BME280;14201;43.188;24.160;2022-12-24T01:52:42;99439.50;;;5.55;84.38
26531;BME280;14201;43.188;24.160;2022-12-24T01:55:09;99451.13;;;5.18;86.87
26531;BME280;14201;43.188;24.160;2022-12-24T01:57:38;99444.19;;;4.89;89.68
26531;BME280;14201;43.188;24.160;2022-12-24T02:00:05;99441.25;;;4.83;91.51
26531;BME280;14201;43.188;24.160;2022-12-24T02:02:31;99439.25;;;4.79;92.39
26531;BME280;14201;43.188;24.160;2022-12-24T02:07:22;99448.44;;;4.60;92.83
26531;BME280;14201;43.188;24.160;2022-12-24T02:09:48;99446.09;;;4.50;91.75
26531;BME280;14201;43.188;24.160;2022-12-24T02:12:17;99448.34;;;4.45;93.01
26531;BME280;14201;43.188;24.160;2022-12-24T02:14:42;99445.78;;;4.45;93.56
26531;BME280;14201;43.188;24.160;2022-12-24T02:17:29;99450.91;;;4.59;94.15
26531;BME280;14201;43.188;24.160;2022-12-24T02:23:12;99446.78;;;4.89;91.47
26531;BME280;14201;43.188;24.160;2022-12-24T02:30:52;99426.44;;;4.80;92.01
26531;BME280;14201;43.188;24.160;2022-12-24T02:33:02;99425.41;;;4.91;92.33
26531;BME280;14201;43.188;24.160;2022-12-24T02:35:32;99422.16;;;4.81;92.38
26531;BME280;14201;43.188;24.160;2022-12-24T02:38:13;99417.81;;;4.80;91.97
26531;BME280;14201;43.188;24.160;2022-12-24T02:40:46;99422.88;;;4.78;91.92
26531;BME280;14201;43.188;24.160;2022-12-24T02:43:15;99426.28;;;4.92;91.91
26531;BME280;14201;43.188;24.160;2022-12-24T02:45:43;99423.09;;;4.96;91.93
26531;BME280;14201;43.188;24.160;2022-12-24T02:48:11;99427.22;;;4.92;91.49
26531;BME280;14201;43.188;24.160;2022-12-24T02:50:37;99424.09;;;4.98;91.64
26531;BME280;14201;43.188;24.160;2022-12-24T02:53:04;99429.78;;;4.92;90.38
26531;BME280;14201;43.188;24.160;2022-12-24T03:06:38;99437.91;;;4.57;90.96
26531;BME280;14201;43.188;24.160;2022-12-24T03:11:09;99427.63;;;4.44;90.61
26531;BME280;14201;43.188;24.160;2022-12-24T03:13:36;99430.50;;;4.48;89.07
26531;BME280;14201;43.188;24.160;2022-12-24T03:16:05;99431.88;;;4.57;88.43
26531;BME280;14201;43.188;24.160;2022-12-24T03:18:31;99433.06;;;4.62;88.19
26531;BME280;14201;43.188;24.160;2022-12-24T03:20:59;99430.78;;;4.53;89.36
26531;BME280;14201;43.188;24.160;2022-12-24T03:23:26;99428.59;;;4.46;90.49
26531;BME280;14201;43.188;24.160;2022-12-24T03:25:51;99427.47;;;4.69;89.63
26531;BME280;14201;43.188;24.160;2022-12-24T03:28:17;99425.56;;;4.80;88.78
26531;BME280;14201;43.188;24.160;2022-12-24T03:30:45;99427.66;;;4.72;88.73
26531;BME280;14201;43.188;24.160;2022-12-24T03:33:11;99434.94;;;4.64;89.00
26531;BME280;14201;43.188;24.160;2022-12-24T03:35:37;99434.16;;;4.65;89.88
26531;BME280;14201;43.188;24.160;2022-12-24T03:38:02;99437.34;;;4.48;90.54
26531;BME280;14201;43.188;24.160;2022-12-24T03:40:28;99436.53;;;4.49;90.08
26531;BME280;14201;43.188;24.160;2022-12-24T03:42:54;99443.66;;;4.66;87.47
26531;BME280;14201;43.188;24.160;2022-12-24T03:45:19;99442.03;;;4.40;87.37
26531;BME280;14201;43.188;24.160;2022-12-24T03:47:45;99438.66;;;4.28;87.52
26531;BME280;14201;43.188;24.160;2022-12-24T03:50:10;99432.41;;;4.38;87.36
26531;BME280;14201;43.188;24.160;2022-12-24T03:52:35;99431.22;;;4.32;87.11
26531;BME280;14201;43.188;24.160;2022-12-24T03:55:01;99430.63;;;4.37;87.10
26531;BME280;14201;43.188;24.160;2022-12-24T03:57:26;99431.63;;;4.39;87.08
26531;BME280;14201;43.188;24.160;2022-12-24T03:59:52;99431.88;;;4.43;86.67
26531;BME280;14201;43.188;24.160;2022-12-24T04:02:17;99434.38;;;4.42;86.84
26531;BME280;14201;43.188;24.160;2022-12-24T04:04:43;99444.41;;;4.37;86.94
26531;BME280;14201;43.188;24.160;2022-12-24T04:07:08;99449.84;;;4.42;86.33
26531;BME280;14201;43.188;24.160;2022-12-24T04:09:34;99447.75;;;4.36;86.45
26531;BME280;14201;43.188;24.160;2022-12-24T04:11:59;99451.53;;;4.41;85.97
26531;BME280;14201;43.188;24.160;2022-12-24T04:14:25;99453.00;;;4.51;84.04
26531;BME280;14201;43.188;24.160;2022-12-24T04:16:50;99453.84;;;4.37;83.42
26531;BME280;14201;43.188;24.160;2022-12-24T04:19:15;99458.50;;;4.29;83.82
26531;BME280;14201;43.188;24.160;2022-12-24T04:21:41;99457.50;;;4.27;84.26
26531;BME280;14201;43.188;24.160;2022-12-24T04:24:06;99456.81;;;4.29;83.67
26531;BME280;14201;43.188;24.160;2022-12-24T04:26:32;99455.00;;;4.28;82.76
26531;BME280;14201;43.188;24.160;2022-12-24T04:28:57;99454.81;;;4.25;83.12
26531;BME280;14201;43.188;24.160;2022-12-24T04:31:23;99456.41;;;4.23;83.44
26531;BME280;14201;43.188;24.160;2022-12-24T04:33:49;99461.38;;;4.20;83.77
26531;BME280;14201;43.188;24.160;2022-12-24T04:36:16;99471.28;;;4.14;83.91
26531;BME280;14201;43.188;24.160;2022-12-24T04:38:42;99468.31;;;4.21;83.83
26531;BME280;14201;43.188;24.160;2022-12-24T04:41:09;99464.75;;;4.19;84.03
26531;BME280;14201;43.188;24.160;2022-12-24T04:43:35;99458.88;;;4.22;83.76
26531;BME280;14201;43.188;24.160;2022-12-24T04:46:11;99469.50;;;4.13;84.04
26531;BME280;14201;43.188;24.160;2022-12-24T04:48:39;99473.66;;;4.11;83.58
26531;BME280;14201;43.188;24.160;2022-12-24T04:51:05;99472.88;;;4.12;83.58
26531;BME280;14201;43.188;24.160;2022-12-24T04:53:30;99473.66;;;4.11;82.95
26531;BME280;14201;43.188;24.160;2022-12-24T04:55:56;99476.03;;;4.08;83.28
26531;BME280;14201;43.188;24.160;2022-12-24T04:58:22;99478.72;;;4.09;82.18
26531;BME280;14201;43.188;24.160;2022-12-24T05:00:48;99473.44;;;3.94;83.02
26531;BME280;14201;43.188;24.160;2022-12-24T05:03:13;99477.22;;;3.86;82.65
26531;BME280;14201;43.188;24.160;2022-12-24T05:05:38;99471.38;;;3.89;82.59
26531;BME280;14201;43.188;24.160;2022-12-24T05:08:04;99472.06;;;3.86;82.10
26531;BME280;14201;43.188;24.160;2022-12-24T05:10:29;99469.34;;;3.71;83.55
26531;BME280;14201;43.188;24.160;2022-12-24T05:12:55;99476.75;;;3.53;84.39
26531;BME280;14201;43.188;24.160;2022-12-24T05:15:20;99474.88;;;3.51;84.83
26531;BME280;14201;43.188;24.160;2022-12-24T05:17:46;99475.28;;;3.57;85.24
26531;BME280;14201;43.188;24.160;2022-12-24T05:20:11;99475.78;;;3.01;89.18
26531;BME280;14201;43.188;24.160;2022-12-24T05:22:36;99466.13;;;3.10;90.36
26531;BME280;14201;43.188;24.160;2022-12-24T05:25:20;99463.16;;;2.92;91.83
26531;BME280;14201;43.188;24.160;2022-12-24T05:28:04;99462.06;;;3.14;90.70
26531;BME280;14201;43.188;24.160;2022-12-24T05:30:30;99461.22;;;3.27;89.37
26531;BME280;14201;43.188;24.160;2022-12-24T05:32:55;99461.75;;;3.09;90.92
26531;BME280;14201;43.188;24.160;2022-12-24T05:35:21;99458.53;;;3.25;89.94
26531;BME280;14201;43.188;24.160;2022-12-24T05:37:46;99468.91;;;3.13;90.53
26531;BME280;14201;43.188;24.160;2022-12-24T05:40:11;99463.03;;;3.28;90.70
26531;BME280;14201;43.188;24.160;2022-12-24T05:42:37;99460.88;;;3.34;90.11
26531;BME280;14201;43.188;24.160;2022-12-24T05:45:02;99460.28;;;3.38;89.37
26531;BME280;14201;43.188;24.160;2022-12-24T05:47:28;99462.63;;;3.35;89.84
26531;BME280;14201;43.188;24.160;2022-12-24T05:49:53;99466.41;;;3.40;89.77
26531;BME280;14201;43.188;24.160;2022-12-24T05:52:19;99468.00;;;3.38;89.75
26531;BME280;14201;43.188;24.160;2022-12-24T05:54:44;99466.63;;;3.43;89.33
26531;BME280;14201;43.188;24.160;2022-12-24T05:57:09;99459.81;;;3.44;89.60
26531;BME280;14201;43.188;24.160;2022-12-24T05:59:38;99461.31;;;3.53;89.04
26531;BME280;14201;43.188;24.160;2022-12-24T06:02:03;99476.75;;;3.53;88.95
26531;BME280;14201;43.188;24.160;2022-12-24T06:04:29;99476.94;;;3.57;88.14
26531;BME280;14201;43.188;24.160;2022-12-24T06:06:54;99482.78;;;3.54;88.81
26531;BME280;14201;43.188;24.160;2022-12-24T06:09:20;99482.41;;;3.61;87.79
26531;BME280;14201;43.188;24.160;2022-12-24T06:11:45;99483.72;;;3.68;87.71
26531;BME280;14201;43.188;24.160;2022-12-24T06:14:10;99483.22;;;3.73;87.39
26531;BME280;14201;43.188;24.160;2022-12-24T06:16:36;99484.31;;;3.77;88.23
26531;BME280;14201;43.188;24.160;2022-12-24T06:19:01;99482.28;;;3.98;87.89
26531;BME280;14201;43.188;24.160;2022-12-24T06:21:27;99471.06;;;4.24;87.86
26531;BME280;14201;43.188;24.160;2022-12-24T06:23:52;99472.94;;;4.53;86.32
26531;BME280;14201;43.188;24.160;2022-12-24T06:26:19;99475.00;;;4.59;86.75
26531;BME280;14201;43.188;24.160;2022-12-24T06:28:45;99474.69;;;4.81;86.84
26531;BME280;14201;43.188;24.160;2022-12-24T06:31:12;99474.13;;;5.00;85.39
26531;BME280;14201;43.188;24.160;2022-12-24T06:33:37;99475.53;;;4.95;85.62
26531;BME280;14201;43.188;24.160;2022-12-24T06:36:06;99473.16;;;5.13;86.05
26531;BME280;14201;43.188;24.160;2022-12-24T06:38:32;99472.41;;;5.29;86.47
26531;BME280;14201;43.188;24.160;2022-12-24T06:40:57;99468.00;;;5.41;85.90
26531;BME280;14201;43.188;24.160;2022-12-24T06:43:23;99469.69;;;5.56;86.22
26531;BME280;14201;43.188;24.160;2022-12-24T06:45:49;99466.06;;;5.67;85.83
26531;BME280;14201;43.188;24.160;2022-12-24T06:48:17;99460.44;;;5.89;85.61
26531;BME280;14201;43.188;24.160;2022-12-24T06:50:43;99469.19;;;6.21;85.90
26531;BME280;14201;43.188;24.160;2022-12-24T06:53:08;99471.47;;;6.46;84.40
26531;BME280;14201;43.188;24.160;2022-12-24T06:55:34;99485.03;;;6.73;84.06
26531;BME280;14201;43.188;24.160;2022-12-24T06:57:59;99480.91;;;6.93;83.94
26531;BME280;14201;43.188;24.160;2022-12-24T07:00:24;99483.59;;;7.11;83.98
26531;BME280;14201;43.188;24.160;2022-12-24T07:02:50;99482.22;;;7.51;83.42
26531;BME280;14201;43.188;24.160;2022-12-24T07:05:15;99484.06;;;7.53;80.37
26531;BME280;14201;43.188;24.160;2022-12-24T07:07:42;99477.66;;;7.63;79.60
26531;BME280;14201;43.188;24.160;2022-12-24T07:10:12;99486.41;;;7.65;79.78
26531;BME280;14201;43.188;24.160;2022-12-24T07:12:37;99488.91;;;7.63;80.17
26531;BME280;14201;43.188;24.160;2022-12-24T07:15:03;99493.25;;;7.81;79.17
26531;BME280;14201;43.188;24.160;2022-12-24T07:17:28;99499.34;;;7.81;79.56
26531;BME280;14201;43.188;24.160;2022-12-24T07:19:54;99480.25;;;7.79;79.73
26531;BME280;14201;43.188;24.160;2022-12-24T07:22:19;99490.09;;;7.86;80.00
26531;BME280;14201;43.188;24.160;2022-12-24T07:24:45;99495.94;;;7.82;79.15
26531;BME280;14201;43.188;24.160;2022-12-24T07:27:10;99489.13;;;7.84;79.36
26531;BME280;14201;43.188;24.160;2022-12-24T07:29:36;99495.56;;;7.93;78.89
26531;BME280;14201;43.188;24.160;2022-12-24T07:32:01;99495.06;;;7.82;78.35
26531;BME280;14201;43.188;24.160;2022-12-24T07:34:27;99497.09;;;7.71;80.63
26531;BME280;14201;43.188;24.160;2022-12-24T07:36:52;99495.63;;;7.76;79.93
26531;BME280;14201;43.188;24.160;2022-12-24T07:39:17;99498.13;;;7.75;80.38
26531;BME280;14201;43.188;24.160;2022-12-24T07:41:43;99500.94;;;7.96;81.31
26531;BME280;14201;43.188;24.160;2022-12-24T07:44:12;99496.63;;;8.48;79.59
26531;BME280;14201;43.188;24.160;2022-12-24T07:46:37;99494.31;;;8.73;77.71
26531;BME280;14201;43.188;24.160;2022-12-24T07:49:03;99494.84;;;9.03;77.50
26531;BME280;14201;43.188;24.160;2022-12-24T07:51:28;99488.78;;;9.22;76.87
26531;BME280;14201;43.188;24.160;2022-12-24T07:53:54;99485.03;;;9.54;78.04
26531;BME280;14201;43.188;24.160;2022-12-24T07:56:19;99481.38;;;9.70;77.48
26531;BME280;14201;43.188;24.160;2022-12-24T07:58:45;99485.19;;;9.99;76.22
26531;BME280;14201;43.188;24.160;2022-12-24T08:01:10;99484.72;;;10.08;73.21
26531;BME280;14201;43.188;24.160;2022-12-24T08:03:36;99488.81;;;10.03;73.54
26531;BME280;14201;43.188;24.160;2022-12-24T08:06:02;99483.47;;;10.00;75.08
26531;BME280;14201;43.188;24.160;2022-12-24T08:08:27;99478.66;;;10.09;74.28
26531;BME280;14201;43.188;24.160;2022-12-24T08:10:53;99485.88;;;10.36;75.02
26531;BME280;14201;43.188;24.160;2022-12-24T08:13:18;99483.69;;;10.47;74.35
26531;BME280;14201;43.188;24.160;2022-12-24T08:15:44;99494.09;;;10.90;73.81
26531;BME280;14201;43.188;24.160;2022-12-24T08:18:10;99501.34;;;11.46;71.39
26531;BME280;14201;43.188;24.160;2022-12-24T08:20:38;99499.06;;;11.55;72.15
26531;BME280;14201;43.188;24.160;2022-12-24T08:23:05;99506.78;;;12.00;68.42
26531;BME280;14201;43.188;24.160;2022-12-24T08:25:31;99501.75;;;12.32;68.44
26531;BME280;14201;43.188;24.160;2022-12-24T08:27:56;99510.22;;;12.52;66.97
26531;BME280;14201;43.188;24.160;2022-12-24T08:30:22;99502.19;;;12.73;65.77
26531;BME280;14201;43.188;24.160;2022-12-24T08:32:47;99500.75;;;12.83;67.34
26531;BME280;14201;43.188;24.160;2022-12-24T08:35:13;99498.59;;;12.98;66.51
26531;BME280;14201;43.188;24.160;2022-12-24T08:37:38;99499.13;;;13.15;66.01
26531;BME280;14201;43.188;24.160;2022-12-24T08:40:04;99491.16;;;13.41;65.34
26531;BME280;14201;43.188;24.160;2022-12-24T08:42:29;99494.78;;;13.77;65.27
26531;BME280;14201;43.188;24.160;2022-12-24T08:44:54;99488.13;;;14.24;62.53
26531;BME280;14201;43.188;24.160;2022-12-24T08:47:20;99488.09;;;14.22;59.70
26531;BME280;14201;43.188;24.160;2022-12-24T08:49:45;99480.81;;;14.10;59.08
26531;BME280;14201;43.188;24.160;2022-12-24T08:52:11;99474.72;;;13.76;59.49
26531;BME280;14201;43.188;24.160;2022-12-24T08:54:36;99479.84;;;13.73;60.29
26531;BME280;14201;43.188;24.160;2022-12-24T08:57:02;99479.75;;;13.70;59.96
26531;BME280;14201;43.188;24.160;2022-12-24T08:59:27;99469.78;;;13.55;60.68
26531;BME280;14201;43.188;24.160;2022-12-24T09:01:53;99477.31;;;13.45;60.30
26531;BME280;14201;43.188;24.160;2022-12-24T09:04:18;99472.84;;;13.41;60.00
26531;BME280;14201;43.188;24.160;2022-12-24T09:06:44;99474.41;;;13.34;60.67
26531;BME280;14201;43.188;24.160;2022-12-24T09:09:09;99485.00;;;13.38;60.53
26531;BME280;14201;43.188;24.160;2022-12-24T09:11:35;99476.56;;;13.49;59.89
26531;BME280;14201;43.188;24.160;2022-12-24T09:14:00;99472.19;;;13.48;61.42
26531;BME280;14201;43.188;24.160;2022-12-24T09:16:26;99477.81;;;13.31;60.72
26531;BME280;14201;43.188;24.160;2022-12-24T09:18:51;99476.25;;;13.70;60.62
26531;BME280;14201;43.188;24.160;2022-12-24T09:21:17;99476.72;;;13.87;60.22
26531;BME280;14201;43.188;24.160;2022-12-24T09:23:44;99468.81;;;13.85;59.18
26531;BME280;14201;43.188;24.160;2022-12-24T09:26:14;99472.66;;;13.98;58.96
26531;BME280;14201;43.188;24.160;2022-12-24T09:28:39;99473.25;;;13.88;59.77
26531;BME280;14201;43.188;24.160;2022-12-24T09:31:05;99483.03;;;13.95;58.32
26531;BME280;14201;43.188;24.160;2022-12-24T09:33:32;99482.88;;;13.89;58.60
26531;BME280;14201;43.188;24.160;2022-12-24T09:35:59;99487.81;;;13.76;60.59
26531;BME280;14201;43.188;24.160;2022-12-24T09:38:24;99477.84;;;13.65;61.26
26531;BME280;14201;43.188;24.160;2022-12-24T09:40:50;99483.84;;;13.61;61.96
26531;BME280;14201;43.188;24.160;2022-12-24T09:43:18;99482.06;;;13.58;61.58
26531;BME280;14201;43.188;24.160;2022-12-24T09:45:47;99471.69;;;13.61;61.10
26531;BME280;14201;43.188;24.160;2022-12-24T09:48:15;99474.19;;;13.58;62.02
26531;BME280;14201;43.188;24.160;2022-12-24T09:50:49;99472.03;;;13.43;65.51
26531;BME280;14201;43.188;24.160;2022-12-24T09:53:19;99488.72;;;13.18;65.65
26531;BME280;14201;43.188;24.160;2022-12-24T09:55:46;99489.72;;;12.93;64.52
26531;BME280;14201;43.188;24.160;2022-12-24T09:58:20;99485.00;;;13.10;63.62
26531;BME280;14201;43.188;24.160;2022-12-24T10:00:47;99492.84;;;13.10;63.21
26531;BME280;14201;43.188;24.160;2022-12-24T10:03:14;99486.75;;;12.80;64.17
26531;BME280;14201;43.188;24.160;2022-12-24T10:05:41;99492.22;;;12.88;63.84
26531;BME280;14201;43.188;24.160;2022-12-24T10:08:12;99485.41;;;12.93;64.64
26531;BME280;14201;43.188;24.160;2022-12-24T10:11:26;99490.16;;;13.07;64.46
26531;BME280;14201;43.188;24.160;2022-12-24T10:15:59;99475.41;;;13.09;65.09
26531;BME280;14201;43.188;24.160;2022-12-24T10:21:02;99473.84;;;13.15;65.12
26531;BME280;14201;43.188;24.160;2022-12-24T10:23:38;99471.00;;;13.08;62.95
26531;BME280;14201;43.188;24.160;2022-12-24T10:26:11;99472.50;;;12.99;63.32
26531;BME280;14201;43.188;24.160;2022-12-24T10:28:52;99468.31;;;13.05;64.29
26531;BME280;14201;43.188;24.160;2022-12-24T10:31:28;99473.63;;;13.08;64.31
26531;BME280;14201;43.188;24.160;2022-12-24T10:33:59;99470.41;;;13.16;63.82
26531;BME280;14201;43.188;24.160;2022-12-24T10:36:26;99465.38;;;13.24;62.36
26531;BME280;14201;43.188;24.160;2022-12-24T10:38:52;99466.34;;;13.28;63.43
26531;BME280;14201;43.188;24.160;2022-12-24T10:41:22;99457.50;;;13.23;63.06
26531;BME280;14201;43.188;24.160;2022-12-24T10:43:49;99455.44;;;13.12;64.31
26531;BME280;14201;43.188;24.160;2022-12-24T10:46:22;99453.97;;;13.22;63.95
26531;BME280;14201;43.188;24.160;2022-12-24T10:51:16;99451.75;;;13.34;63.68
26531;BME280;14201;43.188;24.160;2022-12-24T10:53:45;99447.28;;;13.62;62.60
26531;BME280;14201;43.188;24.160;2022-12-24T10:56:14;99445.38;;;13.56;63.40
26531;BME280;14201;43.188;24.160;2022-12-24T10:58:43;99450.56;;;13.55;64.19
26531;BME280;14201;43.188;24.160;2022-12-24T11:01:09;99445.56;;;13.64;64.66
26531;BME280;14201;43.188;24.160;2022-12-24T11:03:35;99453.44;;;13.64;63.25
26531;BME280;14201;43.188;24.160;2022-12-24T11:06:12;99450.75;;;13.63;63.11
26531;BME280;14201;43.188;24.160;2022-12-24T11:08:41;99439.38;;;13.61;63.10
26531;BME280;14201;43.188;24.160;2022-12-24T11:11:08;99443.00;;;13.66;63.06
26531;BME280;14201;43.188;24.160;2022-12-24T11:13:39;99438.06;;;13.76;63.12
26531;BME280;14201;43.188;24.160;2022-12-24T11:18:54;99449.22;;;13.69;63.11
26531;BME280;14201;43.188;24.160;2022-12-24T11:21:24;99451.31;;;13.83;62.44
26531;BME280;14201;43.188;24.160;2022-12-24T11:23:52;99455.19;;;13.98;61.64
26531;BME280;14201;43.188;24.160;2022-12-24T11:26:26;99455.88;;;13.91;61.54
26531;BME280;14201;43.188;24.160;2022-12-24T11:31:47;99455.31;;;14.03;62.72
26531;BME280;14201;43.188;24.160;2022-12-24T11:34:31;99456.94;;;13.98;63.44
26531;BME280;14201;43.188;24.160;2022-12-24T11:42:33;99459.03;;;14.13;61.64
26531;BME280;14201;43.188;24.160;2022-12-24T11:45:02;99455.63;;;14.15;61.24
26531;BME280;14201;43.188;24.160;2022-12-24T11:47:38;99458.16;;;14.12;60.96
26531;BME280;14201;43.188;24.160;2022-12-24T11:52:56;99448.06;;;13.93;61.24
26531;BME280;14201;43.188;24.160;2022-12-24T11:58:03;99440.41;;;14.01;59.12
26531;BME280;14201;43.188;24.160;2022-12-24T12:00:30;99439.53;;;14.00;59.39
26531;BME280;14201;43.188;24.160;2022-12-24T12:02:56;99433.38;;;13.99;58.89
26531;BME280;14201;43.188;24.160;2022-12-24T12:05:25;99430.63;;;13.93;58.75
26531;BME280;14201;43.188;24.160;2022-12-24T12:07:53;99435.75;;;13.89;59.48
26531;BME280;14201;43.188;24.160;2022-12-24T12:10:24;99426.31;;;13.95;60.46
26531;BME280;14201;43.188;24.160;2022-12-24T12:15:36;99430.50;;;13.89;61.59
26531;BME280;14201;43.188;24.160;2022-12-24T12:18:10;99444.97;;;13.74;62.51
26531;BME280;14201;43.188;24.160;2022-12-24T12:20:42;99447.59;;;13.74;62.19
26531;BME280;14201;43.188;24.160;2022-12-24T12:23:29;99453.38;;;13.61;63.15
26531;BME280;14201;43.188;24.160;2022-12-24T12:30:45;99448.31;;;14.02;62.11
26531;BME280;14201;43.188;24.160;2022-12-24T12:33:23;99450.16;;;14.06;61.47
26531;BME280;14201;43.188;24.160;2022-12-24T12:35:49;99449.09;;;13.99;60.94
26531;BME280;14201;43.188;24.160;2022-12-24T12:38:22;99452.19;;;14.18;59.78
26531;BME280;14201;43.188;24.160;2022-12-24T12:49:08;99463.34;;;14.11;59.14
26531;BME280;14201;43.188;24.160;2022-12-24T12:56:56;99472.19;;;14.14;61.33
26531;BME280;14201;43.188;24.160;2022-12-24T13:07:13;99475.72;;;14.16;61.71
26531;BME280;14201;43.188;24.160;2022-12-24T13:17:48;99471.41;;;14.18;61.38
26531;BME280;14201;43.188;24.160;2022-12-24T13:20:19;99469.59;;;14.16;61.27
26531;BME280;14201;43.188;24.160;2022-12-24T13:22:48;99485.22;;;14.13;60.76
26531;BME280;14201;43.188;24.160;2022-12-24T13:25:21;99476.19;;;14.00;60.51
26531;BME280;14201;43.188;24.160;2022-12-24T13:27:47;99487.91;;;14.14;60.00
26531;BME280;14201;43.188;24.160;2022-12-24T13:32:57;99485.94;;;14.06;60.21
26531;BME280;14201;43.188;24.160;2022-12-24T13:35:26;99486.63;;;13.98;59.76
26531;BME280;14201;43.188;24.160;2022-12-24T13:37:52;99487.34;;;13.59;61.65
26531;BME280;14201;43.188;24.160;2022-12-24T13:40:21;99484.94;;;13.67;61.03
26531;BME280;14201;43.188;24.160;2022-12-24T13:51:16;99504.13;;;13.68;63.26
26531;BME280;14201;43.188;24.160;2022-12-24T13:55:52;99509.56;;;13.44;66.41
26531;BME280;14201;43.188;24.160;2022-12-24T13:58:19;99511.34;;;13.45;66.73
26531;BME280;14201;43.188;24.160;2022-12-24T14:00:54;99515.75;;;13.47;66.62
26531;BME280;14201;43.188;24.160;2022-12-24T14:03:25;99517.38;;;13.42;67.37
26531;BME280;14201;43.188;24.160;2022-12-24T14:05:53;99519.88;;;13.39;67.87
26531;BME280;14201;43.188;24.160;2022-12-24T14:10:58;99527.19;;;13.20;69.87
26531;BME280;14201;43.188;24.160;2022-12-24T14:18:34;99542.63;;;13.13;71.51
26531;BME280;14201;43.188;24.160;2022-12-24T14:21:02;99537.19;;;13.05;72.01
26531;BME280;14201;43.188;24.160;2022-12-24T14:23:43;99543.09;;;12.99;72.52
26531;BME280;14201;43.188;24.160;2022-12-24T14:26:14;99543.84;;;12.95;72.87
26531;BME280;14201;43.188;24.160;2022-12-24T14:28:42;99541.81;;;12.87;73.79
26531;BME280;14201;43.188;24.160;2022-12-24T14:31:16;99546.06;;;12.83;73.88
26531;BME280;14201;43.188;24.160;2022-12-24T14:33:42;99545.97;;;12.80;73.87
26531;BME280;14201;43.188;24.160;2022-12-24T14:36:07;99555.50;;;12.78;74.10
26531;BME280;14201;43.188;24.160;2022-12-24T14:38:33;99556.31;;;12.77;74.04
26531;BME280;14201;43.188;24.160;2022-12-24T14:41:08;99558.19;;;12.81;74.75
26531;BME280;14201;43.188;24.160;2022-12-24T14:43:58;99560.53;;;12.72;74.84
26531;BME280;14201;43.188;24.160;2022-12-24T14:47:14;99564.72;;;12.67;75.33